Time;durP1;ratioP1;P1;durP2;ratioP2;P2;SDS_P1;SDS_P2;PMS_P1;PMS_P2;Temp;Humidity;BMP_temperature;BMP_pressure;BME280_temperature;BME280_humidity;BME280_pressure;Samples;Min_cycle;Max_cycle;Signal;HPM_P1;HPM_P2
2023/01/02 00:00:33;;;;;;;10.60;3.20;;;17.10;50.20;;;;;;5040956;28;20505;-46
2023/01/02 00:03:00;;;;;;;10.02;2.88;;;17.20;50.20;;;;;;5040982;28;20064;-48
2023/01/02 00:05:27;;;;;;;9.82;2.20;;;17.20;50.10;;;;;;5042826;28;20412;-42
2023/01/02 00:07:55;;;;;;;8.02;2.08;;;17.20;50.10;;;;;;5044177;28;20051;-44
2023/01/02 00:10:22;;;;;;;7.35;2.28;;;17.20;50.10;;;;;;5041313;28;20879;-44
2023/01/02 00:12:51;;;;;;;13.75;3.00;;;17.20;50.00;;;;;;5043466;28;20064;-45
2023/01/02 00:15:18;;;;;;;12.65;2.85;;;17.20;50.00;;;;;;5042722;28;20409;-48
2023/01/02 00:17:45;;;;;;;11.15;2.15;;;17.20;49.90;;;;;;5041799;28;20049;-46
2023/01/02 00:20:12;;;;;;;8.65;2.20;;;17.30;49.80;;;;;;5041102;28;20064;-44
2023/01/02 00:22:40;;;;;;;14.68;2.67;;;17.30;49.80;;;;;;5042085;28;20079;-46
2023/01/02 00:25:07;;;;;;;19.70;3.30;;;17.30;49.70;;;;;;5040914;28;20049;-43
2023/01/02 00:27:35;;;;;;;15.35;3.17;;;17.30;49.60;;;;;;5042687;28;20071;-46
2023/01/02 00:30:04;;;;;;;4.55;1.80;;;17.30;49.60;;;;;;5042264;28;20500;-46
2023/01/02 00:32:32;;;;;;;11.00;2.63;;;17.30;49.50;;;;;;5039422;28;20057;-45
2023/01/02 00:34:59;;;;;;;14.35;2.65;;;17.30;49.60;;;;;;5039308;28;20049;-46
2023/01/02 00:37:26;;;;;;;9.93;2.42;;;17.30;49.60;;;;;;5041086;28;20402;-43
2023/01/02 00:39:53;;;;;;;9.48;3.15;;;17.40;50.00;;;;;;5040922;28;20056;-42
2023/01/02 00:42:20;;;;;;;6.85;2.17;;;17.40;49.50;;;;;;5043015;28;20053;-42
2023/01/02 00:44:48;;;;;;;9.05;2.58;;;17.40;49.40;;;;;;5042164;28;20049;-47
2023/01/02 00:47:16;;;;;;;9.65;2.30;;;17.40;49.40;;;;;;5042260;28;20061;-42
2023/01/02 00:49:43;;;;;;;6.32;2.33;;;17.40;49.20;;;;;;5040117;28;20060;-43
2023/01/02 00:52:10;;;;;;;9.23;2.40;;;17.40;49.20;;;;;;5042088;28;20448;-44
2023/01/02 00:54:38;;;;;;;10.07;2.17;;;17.40;49.20;;;;;;5039320;28;20063;-44
2023/01/02 00:57:05;;;;;;;14.52;2.42;;;17.40;49.00;;;;;;5042843;28;20056;-41
2023/01/02 00:59:32;;;;;;;13.07;2.00;;;17.40;49.00;;;;;;5040899;28;20513;-47
2023/01/02 01:02:00;;;;;;;7.10;2.33;;;17.40;49.00;;;;;;5040916;28;20049;-43
2023/01/02 01:04:28;;;;;;;11.32;2.47;;;17.40;49.00;;;;;;5042686;28;20056;-46
2023/01/02 01:06:56;;;;;;;7.10;2.08;;;17.40;49.00;;;;;;5042910;28;20064;-45
2023/01/02 01:09:23;;;;;;;9.35;2.08;;;17.40;49.00;;;;;;5040706;28;20516;-47
2023/01/02 01:11:50;;;;;;;9.68;2.50;;;17.40;49.00;;;;;;5041387;28;20052;-45
2023/01/02 01:14:18;;;;;;;8.77;2.03;;;17.40;48.80;;;;;;5042675;28;20064;-45
2023/01/02 01:16:46;;;;;;;8.98;2.60;;;17.40;48.90;;;;;;5042077;28;20048;-42
2023/01/02 01:19:13;;;;;;;10.35;2.45;;;17.50;48.90;;;;;;5039989;28;20045;-44
2023/01/02 01:21:42;;;;;;;11.13;2.78;;;17.40;48.80;;;;;;5041889;28;20389;-47
2023/01/02 01:24:10;;;;;;;11.77;2.63;;;17.40;48.70;;;;;;5039815;28;20420;-46
2023/01/02 01:26:37;;;;;;;10.15;2.47;;;17.40;48.50;;;;;;5041654;28;20057;-43
2023/01/02 01:29:05;;;;;;;9.40;2.97;;;17.40;48.60;;;;;;5042114;28;20506;-43
2023/01/02 01:31:32;;;;;;;11.00;2.90;;;17.40;48.60;;;;;;5041512;28;20052;-42
2023/01/02 01:33:59;;;;;;;11.68;2.55;;;17.40;48.50;;;;;;5041698;28;20056;-43
2023/01/02 01:36:26;;;;;;;7.25;2.30;;;17.40;48.50;;;;;;5040914;28;20057;-46
2023/01/02 01:38:55;;;;;;;11.70;2.50;;;17.50;48.70;;;;;;5040111;28;20504;-43
2023/01/02 01:41:25;;;;;;;7.60;2.30;;;17.50;48.40;;;;;;5040628;28;20060;-46
2023/01/02 01:43:54;;;;;;;11.35;2.50;;;17.50;48.50;;;;;;5042382;28;20057;-43
2023/01/02 01:46:29;;;;;;;7.18;2.30;;;17.50;48.50;;;;;;5040450;28;20060;-46
2023/01/02 01:49:02;;;;;;;8.35;2.10;;;17.40;48.30;;;;;;5041226;28;20079;-47
2023/01/02 01:51:32;;;;;;;10.30;2.33;;;17.40;48.40;;;;;;5041861;28;20045;-44
2023/01/02 01:54:07;;;;;;;8.48;2.45;;;17.50;48.40;;;;;;5040327;28;20506;-44
2023/01/02 01:56:37;;;;;;;12.50;2.67;;;17.50;48.20;;;;;;5041535;28;20053;-44
2023/01/02 01:59:05;;;;;;;13.13;2.47;;;17.50;48.30;;;;;;5041777;28;20048;-46
2023/01/02 02:01:32;;;;;;;11.75;2.38;;;17.40;48.00;;;;;;5040129;28;20052;-45
2023/01/02 02:03:59;;;;;;;10.07;2.42;;;17.40;48.10;;;;;;5040022;28;20049;-45
2023/01/02 02:06:27;;;;;;;8.93;2.30;;;17.40;48.20;;;;;;5035067;28;20548;-44
2023/01/02 02:08:59;;;;;;;8.68;2.10;;;17.50;48.10;;;;;;5039929;28;20049;-46
2023/01/02 02:11:28;;;;;;;12.27;2.67;;;17.50;48.00;;;;;;5040566;28;20063;-47
2023/01/02 02:13:59;;;;;;;6.72;2.10;;;17.50;48.10;;;;;;5041480;28;20041;-48
2023/01/02 02:16:36;;;;;;;7.13;2.05;;;17.50;48.10;;;;;;5039049;28;20048;-45
2023/01/02 02:19:26;;;;;;;15.30;2.80;;;17.50;48.10;;;;;;5040659;28;20390;-43
2023/01/02 02:22:11;;;;;;;10.57;2.28;;;17.50;47.80;;;;;;5040790;28;20045;-47
2023/01/02 02:25:13;;;;;;;8.10;2.70;;;17.50;47.70;;;;;;5037774;28;20505;-48
2023/01/02 02:28:13;;;;;;;9.25;2.35;;;17.50;47.60;;;;;;5012974;28;20049;-45
2023/01/02 02:30:48;;;;;;;10.00;2.25;;;17.50;47.80;;;;;;5022817;28;20049;-47
2023/01/02 02:33:31;;;;;;;16.10;3.33;;;17.50;47.80;;;;;;5041114;28;20068;-43
2023/01/02 02:36:03;;;;;;;8.80;2.50;;;17.50;47.60;;;;;;5040287;28;20863;-49
2023/01/02 02:38:56;;;;;;;10.50;2.63;;;17.50;47.60;;;;;;5034170;28;20052;-43
2023/01/02 02:41:34;;;;;;;8.55;2.28;;;17.50;47.60;;;;;;5038848;28;20049;-44
2023/01/02 02:44:12;;;;;;;12.30;2.80;;;17.50;47.70;;;;;;5041414;28;20053;-45
2023/01/02 02:46:48;;;;;;;10.15;2.50;;;17.50;47.50;;;;;;5040697;28;20057;-48
2023/01/02 02:49:27;;;;;;;13.27;2.63;;;17.50;47.60;;;;;;5040070;28;20413;-46
2023/01/02 02:52:03;;;;;;;11.15;2.70;;;17.50;47.60;;;;;;5040355;28;20412;-43
2023/01/02 02:54:36;;;;;;;10.07;2.47;;;17.50;47.50;;;;;;5039441;28;20052;-45
2023/01/02 02:57:07;;;;;;;9.18;2.47;;;17.50;47.40;;;;;;5037633;28;20049;-43
2023/01/02 02:59:36;;;;;;;10.77;2.58;;;17.50;47.50;;;;;;5039187;28;20056;-46
2023/01/02 03:02:05;;;;;;;10.80;2.53;;;17.50;47.40;;;;;;5040863;28;20044;-47
2023/01/02 03:04:32;;;;;;;9.88;2.45;;;17.50;47.40;;;;;;5040661;28;20056;-43
2023/01/02 03:07:15;;;;;;;12.30;3.03;;;17.50;47.30;;;;;;5031032;28;20068;-45
2023/01/02 03:09:50;;;;;;;7.13;1.95;;;17.50;47.20;;;;;;5033206;28;20397;-43
2023/01/02 03:12:25;;;;;;;9.77;2.40;;;17.50;47.30;;;;;;5038853;28;20060;-46
2023/01/02 03:15:01;;;;;;;12.48;2.15;;;17.50;47.20;;;;;;5040405;28;20436;-46
2023/01/02 03:17:34;;;;;;;11.70;2.17;;;17.50;47.20;;;;;;5041241;28;20060;-47
2023/01/02 03:20:07;;;;;;;9.68;2.15;;;17.50;47.30;;;;;;5043897;28;20049;-44
2023/01/02 03:22:38;;;;;;;8.38;2.45;;;17.50;47.30;;;;;;5043497;28;20504;-46
2023/01/02 03:25:08;;;;;;;15.73;2.60;;;17.50;47.20;;;;;;5040244;28;20508;-45
2023/01/02 03:27:41;;;;;;;7.50;2.10;;;17.50;47.10;;;;;;5044350;28;20080;-48
2023/01/02 03:30:14;;;;;;;11.55;2.10;;;17.50;47.20;;;;;;5040235;28;20049;-48
2023/01/02 03:32:50;;;;;;;10.68;2.33;;;17.50;47.10;;;;;;5043762;28;20523;-44
2023/01/02 03:35:21;;;;;;;13.43;2.40;;;17.50;47.10;;;;;;5043255;28;20048;-43
2023/01/02 03:37:54;;;;;;;9.40;2.47;;;17.50;47.10;;;;;;5044859;28;20053;-44
2023/01/02 03:40:25;;;;;;;14.15;2.63;;;17.50;47.00;;;;;;5041524;28;20045;-46
2023/01/02 03:42:57;;;;;;;15.65;2.80;;;17.50;47.10;;;;;;5043848;28;20059;-47
2023/01/02 03:45:29;;;;;;;8.82;2.33;;;17.40;46.90;;;;;;5044179;28;20831;-47
2023/01/02 03:48:03;;;;;;;11.38;3.08;;;17.50;46.90;;;;;;5044326;28;20057;-44
2023/01/02 03:50:33;;;;;;;11.02;2.60;;;17.50;47.10;;;;;;5044220;28;20049;-44
2023/01/02 03:53:01;;;;;;;7.45;2.30;;;17.40;46.90;;;;;;5043670;28;20497;-43
2023/01/02 03:55:33;;;;;;;14.18;2.25;;;17.40;47.00;;;;;;5040812;28;20053;-46
2023/01/02 03:58:08;;;;;;;13.77;2.38;;;17.40;47.00;;;;;;5040524;28;20065;-47
2023/01/02 04:00:40;;;;;;;13.82;2.63;;;17.40;47.00;;;;;;5040691;28;20049;-43
2023/01/02 04:03:14;;;;;;;16.20;3.70;;;17.40;47.10;;;;;;5044027;28;20385;-44
2023/01/02 04:05:48;;;;;;;10.25;2.63;;;17.40;47.00;;;;;;5042926;28;20052;-46
2023/01/02 04:08:23;;;;;;;6.82;2.05;;;17.40;47.00;;;;;;5042758;28;20136;-41
2023/01/02 04:10:53;;;;;;;6.82;1.90;;;17.40;47.00;;;;;;5042689;28;20045;-46
2023/01/02 04:13:24;;;;;;;14.20;3.17;;;17.40;47.00;;;;;;5042803;28;20120;-48
2023/01/02 04:15:53;;;;;;;8.70;2.58;;;17.40;46.90;;;;;;5043209;28;20048;-46
2023/01/02 04:18:24;;;;;;;14.18;3.20;;;17.40;47.00;;;;;;5042195;28;20524;-46
2023/01/02 04:20:54;;;;;;;11.27;2.67;;;17.40;46.90;;;;;;5042116;28;20055;-47
2023/01/02 04:23:25;;;;;;;10.25;2.47;;;17.40;47.10;;;;;;5039794;28;21416;-47
2023/01/02 04:25:56;;;;;;;7.70;2.13;;;17.30;47.00;;;;;;5042510;28;20060;-43
2023/01/02 04:28:26;;;;;;;16.02;2.88;;;17.30;47.00;;;;;;5040005;28;20053;-43
2023/01/02 04:31:00;;;;;;;13.80;2.85;;;17.30;46.80;;;;;;5039690;28;20056;-43
2023/01/02 04:33:31;;;;;;;12.73;2.45;;;17.40;46.90;;;;;;5040251;28;20413;-42
2023/01/02 04:35:58;;;;;;;10.48;2.30;;;17.30;46.90;;;;;;5042994;28;20049;-43
2023/01/02 04:38:25;;;;;;;14.73;2.17;;;17.30;46.80;;;;;;5041709;28;20059;-44
2023/01/02 04:40:52;;;;;;;10.27;2.17;;;17.30;46.90;;;;;;5041545;28;22000;-44
2023/01/02 04:43:21;;;;;;;11.38;2.35;;;17.30;47.00;;;;;;5032278;28;20060;-45
2023/01/02 04:45:49;;;;;;;9.10;2.45;;;17.30;47.00;;;;;;5035901;28;20405;-45
2023/01/02 04:48:16;;;;;;;8.80;2.47;;;17.30;46.90;;;;;;5037673;28;20061;-47
2023/01/02 04:50:45;;;;;;;13.02;3.00;;;17.30;46.90;;;;;;5041733;28;20048;-43
2023/01/02 04:53:12;;;;;;;9.07;2.47;;;17.30;46.80;;;;;;5041755;28;20052;-48
2023/01/02 04:55:40;;;;;;;9.20;2.55;;;17.30;46.70;;;;;;5040826;28;20501;-42
2023/01/02 04:58:08;;;;;;;12.15;2.40;;;17.30;46.60;;;;;;5041756;28;20055;-43
2023/01/02 05:00:35;;;;;;;9.52;2.38;;;17.30;46.70;;;;;;5040300;28;20413;-43
2023/01/02 05:03:03;;;;;;;12.32;2.60;;;17.20;46.60;;;;;;5038743;28;20602;-43
2023/01/02 05:05:31;;;;;;;11.73;2.80;;;17.20;46.70;;;;;;5041117;28;20068;-42
2023/01/02 05:07:59;;;;;;;11.10;2.13;;;17.20;46.60;;;;;;5040456;28;20067;-44
2023/01/02 05:10:26;;;;;;;10.05;2.40;;;17.20;46.70;;;;;;5038445;28;20392;-45
2023/01/02 05:12:54;;;;;;;11.45;3.40;;;17.20;46.60;;;;;;5039708;28;20056;-43
2023/01/02 05:15:21;;;;;;;16.50;2.63;;;17.20;46.70;;;;;;5038667;28;20067;-44
2023/01/02 05:17:48;;;;;;;10.23;2.70;;;17.20;46.70;;;;;;5031664;28;20052;-49
2023/01/02 05:20:15;;;;;;;7.82;2.40;;;17.20;46.70;;;;;;5038353;28;20056;-46
2023/01/02 05:25:32;;;;;;;13.20;2.88;;;17.20;46.70;;;;;;5046783;28;20056;-46
2023/01/02 05:28:00;;;;;;;11.30;2.33;;;17.20;46.70;;;;;;5040401;28;20056;-45
2023/01/02 05:30:27;;;;;;;12.02;2.50;;;17.20;46.80;;;;;;5040007;28;20370;-43
2023/01/02 05:32:55;;;;;;;11.75;2.28;;;17.20;46.70;;;;;;5039117;28;20049;-44
2023/01/02 05:35:22;;;;;;;14.30;3.08;;;17.20;46.80;;;;;;5041927;28;20381;-43
2023/01/02 05:37:49;;;;;;;13.93;2.45;;;17.20;46.80;;;;;;5042604;28;20056;-45
2023/01/02 05:40:16;;;;;;;15.32;2.72;;;17.20;46.70;;;;;;5038641;28;20512;-44
2023/01/02 05:42:45;;;;;;;8.98;2.53;;;17.20;46.50;;;;;;5041504;28;20511;-44
2023/01/02 05:45:12;;;;;;;19.67;2.90;;;17.20;46.60;;;;;;5036357;28;20045;-46
2023/01/02 05:47:39;;;;;;;12.00;2.58;;;17.20;46.60;;;;;;5042374;28;20413;-47
2023/01/02 05:50:08;;;;;;;11.98;3.30;;;17.10;46.60;;;;;;5041810;28;20049;-45
2023/01/02 05:52:35;;;;;;;12.10;2.17;;;17.10;46.50;;;;;;5041809;28;20512;-48
2023/01/02 05:55:02;;;;;;;13.73;2.85;;;17.10;46.60;;;;;;5039364;28;20060;-46
2023/01/02 05:57:29;;;;;;;15.82;2.95;;;17.10;46.50;;;;;;5038583;28;20056;-44
2023/01/02 05:59:58;;;;;;;11.73;2.60;;;17.10;46.40;;;;;;5039600;28;20608;-44
2023/01/02 06:02:25;;;;;;;14.27;2.67;;;17.10;46.50;;;;;;5040363;28;20056;-45
2023/01/02 06:04:52;;;;;;;8.90;2.25;;;17.10;46.50;;;;;;5041521;28;20504;-43
2023/01/02 06:07:20;;;;;;;12.35;2.53;;;17.10;46.50;;;;;;5041356;28;20057;-46
2023/01/02 06:09:47;;;;;;;13.93;2.80;;;17.10;46.60;;;;;;5041835;28;20041;-45
2023/01/02 06:12:14;;;;;;;12.75;2.65;;;17.10;46.50;;;;;;5042138;28;20489;-47
2023/01/02 06:14:41;;;;;;;12.40;2.83;;;17.10;46.40;;;;;;5041273;28;20056;-47
2023/01/02 06:17:10;;;;;;;15.38;2.90;;;17.10;46.30;;;;;;5041326;28;20522;-47
2023/01/02 06:19:37;;;;;;;13.32;2.92;;;17.10;46.50;;;;;;5041073;28;20045;-44
2023/01/02 06:22:04;;;;;;;8.20;2.05;;;17.10;46.50;;;;;;5039395;28;20058;-44
2023/01/02 06:24:31;;;;;;;27.27;12.35;;;17.10;46.50;;;;;;5038391;28;22005;-43
2023/01/02 06:26:59;;;;;;;12.95;3.80;;;17.10;46.50;;;;;;5042097;28;20057;-43
2023/01/02 06:29:26;;;;;;;17.60;3.13;;;17.10;46.50;;;;;;5039909;28;20052;-45
2023/01/02 06:31:53;;;;;;;12.77;2.50;;;17.10;46.70;;;;;;5040064;28;20052;-44
2023/01/02 06:34:22;;;;;;;11.88;2.65;;;17.10;46.70;;;;;;5039266;28;20417;-47
2023/01/02 06:36:49;;;;;;;20.27;3.45;;;17.00;46.70;;;;;;5041111;28;20051;-45
2023/01/02 06:39:16;;;;;;;8.32;2.50;;;17.10;46.80;;;;;;5040390;28;20059;-43
2023/01/02 06:41:43;;;;;;;17.92;2.75;;;17.10;46.80;;;;;;5038171;28;20709;-45
2023/01/02 06:44:13;;;;;;;15.77;2.60;;;17.00;46.70;;;;;;5040232;28;20053;-42
2023/01/02 06:46:40;;;;;;;10.85;2.63;;;17.00;46.70;;;;;;5036088;28;20041;-46
2023/01/02 06:49:07;;;;;;;11.40;2.55;;;17.00;46.80;;;;;;5039742;28;20501;-43
2023/01/02 06:51:36;;;;;;;14.38;2.67;;;17.00;46.70;;;;;;5038785;28;20053;-47
2023/01/02 06:54:03;;;;;;;9.65;2.72;;;17.00;46.60;;;;;;5037724;28;20515;-42
2023/01/02 06:56:30;;;;;;;7.78;1.95;;;17.00;46.60;;;;;;5040901;28;20049;-48
2023/01/02 06:58:58;;;;;;;10.88;2.78;;;17.00;46.60;;;;;;5040262;28;20351;-42
2023/01/02 07:01:26;;;;;;;13.50;2.03;;;17.00;46.60;;;;;;5035712;28;20057;-45
2023/01/02 07:03:54;;;;;;;11.75;2.80;;;17.00;46.50;;;;;;5040934;28;20061;-48
2023/01/02 07:06:22;;;;;;;10.27;2.90;;;16.90;46.50;;;;;;5029428;28;20063;-48
2023/01/02 07:08:52;;;;;;;7.80;1.85;;;16.90;46.50;;;;;;5034789;28;20060;-50
2023/01/02 07:11:21;;;;;;;8.88;2.20;;;16.90;46.50;;;;;;5035004;28;20496;-43
2023/01/02 07:13:51;;;;;;;12.60;3.03;;;16.90;46.50;;;;;;5038829;28;20058;-46
2023/01/02 07:16:20;;;;;;;6.93;2.67;;;16.90;46.50;;;;;;5034960;28;20057;-45
2023/01/02 07:18:48;;;;;;;10.88;2.42;;;16.90;46.50;;;;;;5040212;28;20048;-43
2023/01/02 07:21:18;;;;;;;7.78;1.85;;;16.90;46.50;;;;;;5041104;28;20473;-48
2023/01/02 07:23:45;;;;;;;14.35;1.92;;;16.80;46.60;;;;;;5038021;28;20398;-44
2023/01/02 07:26:14;;;;;;;14.82;2.33;;;16.80;47.10;;;;;;5037407;28;20053;-45
2023/01/02 07:28:42;;;;;;;12.07;2.83;;;16.80;46.50;;;;;;5040593;28;20057;-43
2023/01/02 07:31:14;;;;;;;11.35;2.45;;;16.80;46.50;;;;;;5036226;28;20045;-44
2023/01/02 07:33:43;;;;;;;11.73;2.35;;;16.80;46.50;;;;;;5038613;28;20057;-43
2023/01/02 07:36:13;;;;;;;13.27;2.90;;;16.80;46.60;;;;;;5038477;28;20053;-43
2023/01/02 07:38:41;;;;;;;17.42;2.67;;;16.80;46.60;;;;;;5038558;28;20053;-45
2023/01/02 07:41:15;;;;;;;14.90;2.60;;;16.80;46.80;;;;;;5040043;28;20053;-43
2023/01/02 07:43:45;;;;;;;11.88;3.15;;;16.80;46.80;;;;;;5038729;28;20370;-46
2023/01/02 07:46:12;;;;;;;12.10;2.70;;;16.80;46.80;;;;;;5037780;28;20072;-43
2023/01/02 07:48:42;;;;;;;15.05;3.10;;;16.80;47.00;;;;;;5039512;28;21991;-44
2023/01/02 07:51:10;;;;;;;14.27;2.38;;;16.70;47.00;;;;;;5040393;28;20056;-44
2023/01/02 07:53:40;;;;;;;10.35;2.67;;;16.70;46.90;;;;;;5037248;28;20053;-45
2023/01/02 07:56:08;;;;;;;10.68;2.90;;;16.70;47.10;;;;;;5039801;28;20075;-43
2023/01/02 07:58:37;;;;;;;8.25;2.20;;;16.70;47.00;;;;;;5039682;28;20405;-43
2023/01/02 08:01:09;;;;;;;7.38;2.03;;;16.70;47.20;;;;;;5035599;28;20633;-43
2023/01/02 08:03:37;;;;;;;13.05;2.22;;;16.70;47.30;;;;;;5038539;28;20409;-46
2023/01/02 08:06:05;;;;;;;10.23;2.30;;;16.70;47.30;;;;;;5036426;28;20076;-45
2023/01/02 08:08:35;;;;;;;7.72;2.10;;;16.70;47.50;;;;;;5039704;28;20064;-48
2023/01/02 08:11:05;;;;;;;10.23;2.20;;;16.70;47.40;;;;;;5042014;28;20563;-43
2023/01/02 08:13:32;;;;;;;7.65;2.03;;;16.70;47.40;;;;;;5040358;28;20523;-44
2023/01/02 08:16:08;;;;;;;8.82;2.92;;;16.70;47.50;;;;;;5039715;28;20416;-47
2023/01/02 08:18:36;;;;;;;12.90;2.38;;;16.70;47.60;;;;;;5041086;28;20060;-44
2023/01/02 08:21:04;;;;;;;12.15;2.35;;;16.70;47.60;;;;;;5041895;28;20412;-51
2023/01/02 08:23:32;;;;;;;12.40;2.35;;;16.70;47.60;;;;;;5035365;28;20428;-44
2023/01/02 08:26:00;;;;;;;11.55;2.33;;;16.60;47.50;;;;;;5039599;28;20060;-46
2023/01/02 08:28:28;;;;;;;12.15;1.67;;;16.60;47.50;;;;;;5039512;28;20049;-47
2023/01/02 08:30:56;;;;;;;12.23;2.10;;;16.60;47.70;;;;;;5041439;28;20045;-45
2023/01/02 08:33:24;;;;;;;6.03;2.13;;;16.70;47.90;;;;;;5038406;28;20064;-47
2023/01/02 08:35:52;;;;;;;5.28;1.63;;;16.60;48.10;;;;;;5040898;28;20651;-48
2023/01/02 08:38:19;;;;;;;10.05;2.08;;;16.60;48.20;;;;;;5040088;28;20057;-45
2023/01/02 08:40:46;;;;;;;11.13;2.08;;;16.60;48.40;;;;;;5039523;28;20057;-45
2023/01/02 08:43:13;;;;;;;6.25;1.80;;;16.60;48.30;;;;;;5041600;28;20049;-43
2023/01/02 08:45:40;;;;;;;10.70;2.47;;;16.60;48.30;;;;;;5040938;28;20053;-46
2023/01/02 08:48:08;;;;;;;17.35;3.03;;;16.50;48.50;;;;;;5043236;28;20057;-45
2023/01/02 08:50:36;;;;;;;5.57;1.98;;;16.50;48.60;;;;;;5042138;28;20401;-47
2023/01/02 08:53:03;;;;;;;10.05;1.90;;;16.50;48.70;;;;;;5042023;28;20053;-44
2023/01/02 08:55:31;;;;;;;9.70;1.90;;;16.50;48.70;;;;;;5038120;28;20385;-50
2023/01/02 08:57:58;;;;;;;8.52;1.70;;;16.50;48.90;;;;;;5039351;28;20060;-44
2023/01/02 09:00:25;;;;;;;6.88;1.98;;;16.50;49.00;;;;;;5044902;28;20428;-48
2023/01/02 09:02:52;;;;;;;3.72;1.40;;;16.50;49.00;;;;;;5044137;28;20056;-48
2023/01/02 09:05:20;;;;;;;6.55;1.60;;;16.50;49.20;;;;;;5042844;28;20080;-42
2023/01/02 09:07:48;;;;;;;6.25;1.63;;;16.50;49.30;;;;;;5044244;28;20057;-42
2023/01/02 09:10:15;;;;;;;8.82;1.92;;;16.40;49.40;;;;;;5042934;28;20053;-50
2023/01/02 09:12:43;;;;;;;6.40;1.85;;;16.40;49.40;;;;;;5037051;28;20049;-50
2023/01/02 09:15:11;;;;;;;7.65;1.35;;;16.40;49.60;;;;;;5038733;28;20049;-47
2023/01/02 09:17:38;;;;;;;8.98;1.67;;;16.40;49.80;;;;;;5041668;28;20616;-45
2023/01/02 09:20:06;;;;;;;9.00;2.15;;;16.40;49.90;;;;;;5039627;28;20048;-49
2023/01/02 09:22:33;;;;;;;6.25;1.63;;;16.30;49.90;;;;;;5041437;28;20049;-44
2023/01/02 09:25:03;;;;;;;8.13;1.92;;;16.30;50.00;;;;;;5040206;28;20064;-50
2023/01/02 09:27:30;;;;;;;8.30;2.20;;;16.30;50.10;;;;;;5040419;28;20071;-48
2023/01/02 09:29:57;;;;;;;9.60;1.90;;;16.30;50.20;;;;;;5042306;28;20524;-50
2023/01/02 09:32:24;;;;;;;7.28;2.10;;;16.30;50.40;;;;;;5042538;28;20048;-46
2023/01/02 09:34:52;;;;;;;5.07;1.90;;;16.30;50.50;;;;;;5038789;28;20059;-47
2023/01/02 09:37:19;;;;;;;9.82;2.38;;;16.30;50.70;;;;;;5040133;28;20056;-44
2023/01/02 09:39:46;;;;;;;8.73;2.03;;;16.30;50.80;;;;;;5038314;28;20057;-51
2023/01/02 09:42:17;;;;;;;7.90;1.67;;;16.20;50.80;;;;;;5037689;28;20045;-44
2023/01/02 09:44:50;;;;;;;5.47;1.77;;;16.20;51.00;;;;;;5039354;28;20053;-47
2023/01/02 09:47:21;;;;;;;7.18;1.90;;;16.20;51.20;;;;;;5041406;28;20057;-46
2023/01/02 09:49:51;;;;;;;6.88;2.10;;;16.20;51.50;;;;;;5040518;28;20076;-47
2023/01/02 09:52:22;;;;;;;9.27;1.95;;;16.20;51.70;;;;;;5039826;28;20390;-47
2023/01/02 09:54:49;;;;;;;7.32;2.03;;;16.10;51.80;;;;;;5036587;28;20049;-46
2023/01/02 09:57:30;;;;;;;6.00;2.40;;;16.10;52.00;;;;;;5041156;28;20088;-46
2023/01/02 10:00:02;;;;;;;5.53;2.13;;;16.10;52.20;;;;;;5038754;28;20517;-45
2023/01/02 10:02:47;;;;;;;9.13;2.00;;;16.10;52.20;;;;;;5038131;28;20405;-43
2023/01/02 10:05:42;;;;;;;12.90;3.15;;;16.10;52.70;;;;;;5034548;28;20309;-45
2023/01/02 10:08:14;;;;;;;;;;;16.10;52.90;;;;;;5037646;28;20057;-46
2023/01/02 10:10:44;;;;;;;7.60;1.88;;;16.10;52.50;;;;;;5040439;28;19928;-45
2023/01/02 10:13:21;;;;;;;8.57;1.88;;;16.10;52.90;;;;;;5039982;28;20041;-47
2023/01/02 10:15:51;;;;;;;4.18;1.50;;;16.10;53.60;;;;;;5039893;28;20048;-44
2023/01/02 10:18:23;;;;;;;11.07;1.85;;;16.10;53.60;;;;;;5041181;28;20432;-44
2023/01/02 10:20:55;;;;;;;9.45;1.63;;;16.00;54.10;;;;;;5040886;28;20045;-41
2023/01/02 10:23:28;;;;;;;6.43;1.50;;;16.00;54.60;;;;;;5038272;28;20064;-45
2023/01/02 10:25:59;;;;;;;3.88;2.00;;;16.00;54.70;;;;;;5038118;28;20053;-43
2023/01/02 10:28:40;;;;;;;5.13;1.08;;;16.00;54.60;;;;;;5038515;28;20056;-45
2023/01/02 10:31:10;;;;;;;8.70;6.43;;;15.90;54.80;;;;;;5039536;28;20056;-43
2023/01/02 10:33:45;;;;;;;7.85;4.65;;;15.90;54.80;;;;;;5040113;28;20481;-46
2023/01/02 10:36:22;;;;;;;17.92;12.13;;;15.90;55.10;;;;;;5040370;28;20493;-44
2023/01/02 10:38:50;;;;;;;10.88;7.18;;;15.90;55.30;;;;;;5038870;28;20938;-44
2023/01/02 10:41:18;;;;;;;10.05;5.78;;;15.90;55.10;;;;;;5037208;28;20717;-45
2023/01/02 10:43:53;;;;;;;13.00;8.00;;;15.90;55.20;;;;;;5041607;28;20052;-45
2023/01/02 10:46:20;;;;;;;13.98;4.07;;;15.90;55.30;;;;;;5039182;28;20057;-45
2023/01/02 10:48:49;;;;;;;12.05;3.80;;;15.90;55.30;;;;;;5036807;28;20049;-48
2023/01/02 10:51:18;;;;;;;5.45;2.40;;;15.90;55.30;;;;;;5040590;28;20393;-44
2023/01/02 10:54:02;;;;;;;3.78;1.48;;;15.90;55.30;;;;;;5041587;28;20056;-46
2023/01/02 10:56:32;;;;;;;12.05;1.55;;;15.90;55.50;;;;;;5042798;28;20063;-45
2023/01/02 10:59:01;;;;;;;4.30;1.80;;;15.80;55.20;;;;;;5040910;28;21001;-43
2023/01/02 11:01:29;;;;;;;1.92;1.10;;;15.80;55.20;;;;;;5039563;28;20045;-45
2023/01/02 11:04:13;;;;;;;2.33;0.90;;;15.80;55.20;;;;;;5042382;28;20053;-43
2023/01/02 11:06:52;;;;;;;4.77;1.67;;;15.80;55.20;;;;;;5042434;28;20053;-42
2023/01/02 11:09:21;;;;;;;5.05;1.30;;;15.80;55.10;;;;;;5040910;28;20420;-44
2023/01/02 11:11:50;;;;;;;5.13;1.33;;;15.70;55.10;;;;;;5041823;28;20397;-47
2023/01/02 11:14:23;;;;;;;2.33;1.35;;;15.70;55.10;;;;;;5041181;28;20056;-49
2023/01/02 11:16:51;;;;;;;2.70;1.13;;;15.70;55.30;;;;;;5042985;28;20650;-46
2023/01/02 11:19:21;;;;;;;5.38;1.42;;;15.70;55.90;;;;;;5042590;28;21050;-46
2023/01/02 11:21:49;;;;;;;1.73;1.20;;;15.70;55.60;;;;;;5043794;28;20053;-49
2023/01/02 11:24:21;;;;;;;2.25;1.17;;;15.60;55.60;;;;;;5041364;28;20060;-45
2023/01/02 11:26:49;;;;;;;5.65;1.75;;;15.60;55.60;;;;;;5041686;28;20531;-47
2023/01/02 11:29:26;;;;;;;2.83;1.50;;;15.60;55.50;;;;;;5040674;28;20067;-42
2023/01/02 11:31:56;;;;;;;2.60;1.17;;;15.60;55.40;;;;;;5042178;28;20052;-45
2023/01/02 11:34:25;;;;;;;2.70;1.42;;;15.60;55.30;;;;;;5039442;28;20128;-43
2023/01/02 11:37:14;;;;;;;4.45;2.13;;;15.60;55.30;;;;;;5042923;28;20053;-42
2023/01/02 11:39:42;;;;;;;3.92;1.30;;;15.60;55.40;;;;;;5041686;28;20187;-43
2023/01/02 11:45:08;;;;;;;3.38;1.05;;;15.50;55.30;;;;;;5051127;28;20060;-44
2023/01/02 11:47:39;;;;;;;1.33;0.73;;;15.50;55.30;;;;;;5041953;28;20063;-44
2023/01/02 11:50:07;;;;;;;2.40;0.95;;;15.50;55.30;;;;;;5040696;28;20064;-46
2023/01/02 11:52:40;;;;;;;2.50;0.90;;;15.50;55.30;;;;;;5042979;28;20140;-43
2023/01/02 11:55:18;;;;;;;5.63;1.10;;;15.50;55.30;;;;;;5039900;28;20061;-43
2023/01/02 11:57:52;;;;;;;1.83;0.77;;;15.50;55.50;;;;;;5042066;28;20096;-44
2023/01/02 12:00:23;;;;;;;4.25;0.80;;;15.50;55.50;;;;;;5043693;28;20052;-46
2023/01/02 12:02:52;;;;;;;1.75;0.68;;;15.50;55.50;;;;;;5045695;28;20053;-43
2023/01/02 12:05:25;;;;;;;0.98;0.68;;;15.50;55.50;;;;;;5045475;28;20053;-45
2023/01/02 12:08:00;;;;;;;3.22;0.63;;;15.50;55.60;;;;;;5045617;28;20060;-44
2023/01/02 12:10:41;;;;;;;1.30;0.60;;;15.50;55.60;;;;;;5044582;28;20606;-42
2023/01/02 12:13:26;;;;;;;2.70;0.65;;;15.50;55.70;;;;;;5044402;28;20409;-43
2023/01/02 12:16:08;;;;;;;2.50;0.70;;;15.50;55.80;;;;;;5045683;28;20389;-42
2023/01/02 12:18:52;;;;;;;2.15;0.70;;;15.50;55.80;;;;;;5045041;28;20675;-44
2023/01/02 12:21:24;;;;;;;4.47;0.90;;;15.50;55.80;;;;;;5044499;28;20049;-44
2023/01/02 12:24:21;;;;;;;3.03;1.00;;;15.50;55.70;;;;;;5043549;28;20055;-46
2023/01/02 12:26:57;;;;;;;1.83;0.93;;;15.60;55.90;;;;;;5044155;28;20481;-46
2023/01/02 12:29:38;;;;;;;1.25;0.75;;;15.60;55.80;;;;;;5044295;28;20048;-49
2023/01/02 12:32:37;;;;;;;4.93;1.00;;;15.60;55.80;;;;;;5045640;28;20433;-46
2023/01/02 12:35:20;;;;;;;2.28;0.73;;;15.60;55.90;;;;;;5044802;28;20504;-43
2023/01/02 12:37:49;;;;;;;1.67;0.80;;;15.60;55.80;;;;;;5045688;28;20057;-43
2023/01/02 12:40:38;;;;;;;2.45;0.90;;;15.60;55.80;;;;;;5044225;28;20060;-44
2023/01/02 12:43:17;;;;;;;3.55;1.25;;;15.60;56.00;;;;;;5044500;28;20068;-43
2023/01/02 12:45:51;;;;;;;3.80;1.20;;;15.60;56.20;;;;;;5044824;28;20049;-42
2023/01/02 12:48:38;;;;;;;1.63;0.82;;;15.60;56.10;;;;;;5045747;28;20080;-46
2023/01/02 12:51:15;;;;;;;3.72;1.13;;;15.70;56.30;;;;;;5044674;28;20053;-43
2023/01/02 12:54:01;;;;;;;2.22;0.90;;;15.70;56.30;;;;;;5043997;28;20063;-44
2023/01/02 12:56:40;;;;;;;5.45;1.52;;;15.70;56.40;;;;;;5044128;28;20056;-44
2023/01/02 12:59:22;;;;;;;2.45;1.23;;;15.70;56.40;;;;;;5043765;28;20086;-44
2023/01/02 13:01:57;;;;;;;4.50;2.10;;;15.70;56.40;;;;;;5044423;28;20052;-42
2023/01/02 13:04:30;;;;;;;8.55;1.55;;;15.80;56.40;;;;;;5044296;28;20425;-45
2023/01/02 13:07:02;;;;;;;10.52;1.63;;;15.80;56.40;;;;;;5043540;28;20052;-46